createdAt,value
2019-04-14T00:02:38.153Z,38.27
2019-04-14T00:05:10.432Z,35.30
2019-04-14T00:07:40.594Z,34.63
2019-04-14T00:10:11.472Z,35.73
2019-04-14T00:12:40.635Z,34.57
2019-04-14T00:15:21.116Z,38.47
2019-04-14T00:17:43.482Z,36.37
2019-04-14T00:20:14.176Z,36.33
2019-04-14T00:22:44.550Z,36.80
2019-04-14T00:25:15.090Z,37.67
2019-04-14T00:27:45.324Z,37.90
2019-04-14T00:30:16.544Z,36.93
2019-04-14T00:32:50.962Z,34.60
2019-04-14T00:35:29.988Z,34.00
2019-04-14T00:38:15.283Z,34.00
2019-04-14T00:40:56.061Z,38.83
2019-04-14T00:43:33.121Z,39.10
2019-04-14T00:46:12.465Z,39.43
2019-04-14T00:48:43.007Z,36.57
2019-04-14T00:51:13.308Z,36.57
2019-04-14T00:53:42.702Z,38.77
2019-04-14T00:56:12.848Z,40.07
2019-04-14T00:58:43.155Z,40.67
2019-04-14T01:01:13.293Z,41.33
2019-04-14T01:03:43.566Z,38.67
2019-04-14T01:06:14.214Z,37.23
2019-04-14T01:08:44.500Z,39.83
2019-04-14T01:11:13.903Z,36.73
2019-04-14T01:13:44.016Z,41.17
2019-04-14T01:16:17.594Z,41.07
2019-04-14T01:18:45.124Z,41.57
2019-04-14T01:21:15.329Z,39.10
2019-04-14T01:23:45.524Z,37.10
2019-04-14T01:26:15.934Z,30.23
2019-04-14T01:28:46.155Z,37.07
2019-04-14T01:31:16.223Z,38.00
2019-04-14T01:33:45.459Z,38.90
2019-04-14T01:36:14.899Z,39.77
2019-04-14T01:38:45.009Z,39.70
2019-04-14T01:41:15.024Z,39.57
2019-04-14T01:43:45.190Z,37.77
2019-04-14T01:46:20.939Z,40.53
2019-04-14T01:48:45.476Z,39.47
2019-04-14T01:51:33.609Z,39.07
2019-04-14T01:54:19.219Z,38.70
2019-04-14T01:57:06.669Z,38.80
2019-04-14T01:59:36.965Z,42.13
2019-04-14T02:02:09.736Z,41.63
2019-04-14T02:04:39.869Z,43.03
2019-04-14T02:07:10.200Z,40.77
2019-04-14T02:09:40.104Z,39.20
2019-04-14T02:12:10.503Z,41.93
2019-04-14T02:14:40.829Z,34.23
2019-04-14T02:17:11.174Z,45.13
2019-04-14T02:19:41.583Z,39.27
2019-04-14T02:22:11.687Z,41.17
2019-04-14T02:24:41.724Z,45.70
2019-04-14T02:27:12.066Z,43.60
2019-04-14T02:29:41.349Z,40.90
2019-04-14T02:32:45.355Z,42.23
2019-04-14T02:35:11.136Z,46.60
2019-04-14T02:37:44.774Z,43.63
2019-04-14T02:40:11.840Z,43.23
2019-04-14T02:42:41.990Z,45.67
2019-04-14T02:45:19.093Z,42.17
2019-04-14T02:48:09.239Z,49.53
2019-04-14T02:50:17.956Z,47.20
2019-04-14T02:53:00.679Z,44.60
2019-04-14T02:55:10.242Z,45.73
2019-04-14T02:57:49.470Z,46.27
2019-04-14T03:05:16.362Z,48.00
2019-04-14T03:07:54.155Z,46.67
2019-04-14T03:10:27.632Z,40.10
2019-04-14T03:12:57.957Z,42.17
2019-04-14T03:15:27.988Z,48.07
2019-04-14T03:21:15.835Z,49.00
2019-04-14T03:26:27.626Z,43.93
2019-04-14T03:29:02.420Z,45.33
2019-04-14T03:31:59.362Z,41.10
2019-04-14T03:34:24.231Z,43.87
2019-04-14T03:37:15.659Z,43.90
2019-04-14T03:39:27.652Z,46.30
2019-04-14T03:44:10.129Z,45.03
2019-04-14T03:46:43.403Z,48.00
2019-04-14T03:49:17.843Z,43.17
2019-04-14T03:51:45.030Z,48.13
2019-04-14T03:54:02.902Z,50.77
2019-04-14T03:56:46.635Z,46.80
2019-04-14T03:59:17.522Z,44.20
2019-04-14T04:01:47.873Z,48.70
2019-04-14T04:04:18.413Z,46.33
2019-04-14T04:06:48.626Z,48.27
2019-04-14T04:09:19.292Z,46.50
2019-04-14T04:11:49.731Z,47.23
2019-04-14T04:14:20.242Z,47.20
2019-04-14T04:17:21.203Z,49.40
2019-04-14T04:20:13.142Z,50.73
2019-04-14T04:23:03.114Z,48.87
2019-04-14T04:26:00.333Z,51.27
2019-04-14T04:28:49.666Z,51.83
2019-04-14T04:31:37.432Z,46.87
2019-04-14T04:34:25.075Z,50.83
2019-04-14T04:37:04.127Z,52.53
2019-04-14T04:39:36.970Z,48.83
2019-04-14T04:42:07.054Z,53.20
2019-04-14T04:44:36.245Z,47.87
2019-04-14T04:47:05.803Z,49.33
2019-04-14T04:49:36.057Z,51.27
2019-04-14T04:52:06.267Z,52.23
2019-04-14T04:54:36.389Z,50.00
2019-04-14T04:57:06.791Z,48.27
2019-04-14T04:59:36.704Z,48.27
2019-04-14T05:02:06.984Z,51.20
2019-04-14T05:04:37.317Z,47.17
2019-04-14T05:07:07.981Z,50.00
2019-04-14T05:09:56.286Z,49.87
2019-04-14T05:12:50.311Z,50.17
2019-04-14T05:15:44.675Z,51.27
2019-04-14T05:18:22.206Z,48.80
2019-04-14T05:20:51.534Z,46.77
2019-04-14T05:23:21.341Z,49.30
2019-04-14T05:25:51.725Z,46.23
2019-04-14T05:28:22.037Z,49.17
2019-04-14T05:30:52.435Z,52.90
2019-04-14T05:33:22.795Z,48.60
2019-04-14T05:35:53.221Z,45.20
2019-04-14T05:38:23.659Z,48.40
2019-04-14T05:40:54.000Z,51.73
2019-04-14T05:43:32.277Z,48.60
2019-04-14T05:45:54.490Z,48.33
2019-04-14T05:48:25.040Z,50.13
2019-04-14T05:50:55.483Z,52.60
2019-04-14T05:53:24.780Z,38.60
2019-04-14T05:55:54.591Z,48.70
2019-04-14T05:58:23.779Z,45.50
2019-04-14T06:00:53.382Z,48.87
2019-04-14T06:03:23.453Z,46.83
2019-04-14T06:05:52.896Z,48.33
2019-04-14T06:08:22.116Z,50.97
2019-04-14T06:10:51.356Z,45.57
2019-04-14T06:13:20.518Z,46.63
2019-04-14T06:15:49.823Z,48.43
2019-04-14T06:18:19.003Z,47.10
2019-04-14T06:20:48.251Z,52.63
2019-04-14T06:23:17.454Z,48.80
2019-04-14T06:25:46.679Z,49.53
2019-04-14T06:28:15.937Z,45.73
2019-04-14T06:31:10.376Z,46.37
2019-04-14T06:33:46.334Z,48.47
2019-04-14T06:36:46.689Z,47.17
2019-04-14T06:39:19.906Z,46.40
2019-04-14T06:41:49.275Z,47.00
2019-04-14T06:44:19.942Z,48.87
2019-04-14T06:46:49.148Z,46.67
2019-04-14T06:49:18.317Z,43.53
2019-04-14T06:51:47.521Z,46.70
2019-04-14T06:54:16.650Z,48.60
2019-04-14T06:56:45.845Z,47.53
2019-04-14T06:59:15.031Z,46.63
2019-04-14T07:01:44.230Z,43.33
2019-04-14T07:04:13.560Z,42.60
2019-04-14T07:06:42.721Z,42.97
2019-04-14T07:09:11.943Z,41.30
2019-04-14T07:11:41.171Z,45.03
2019-04-14T07:14:10.386Z,39.23
2019-04-14T07:16:39.550Z,44.13
2019-04-14T07:19:08.759Z,41.77
2019-04-14T07:21:38.004Z,40.50
2019-04-14T07:24:07.193Z,40.83
2019-04-14T07:26:36.402Z,45.20
2019-04-14T07:29:05.607Z,40.47
2019-04-14T07:31:52.354Z,41.30
2019-04-14T07:34:44.248Z,41.87
2019-04-14T07:37:32.456Z,43.23
2019-04-14T07:40:10.893Z,39.23
2019-04-14T07:42:59.036Z,36.67
2019-04-14T07:45:34.516Z,37.53
2019-04-14T07:48:10.014Z,40.17
2019-04-14T07:50:57.243Z,37.67
2019-04-14T07:53:36.916Z,35.10
2019-04-14T07:56:37.021Z,39.03
2019-04-14T07:59:12.433Z,38.10
2019-04-14T08:01:56.733Z,34.07
2019-04-14T08:04:28.601Z,40.07
2019-04-14T08:06:59.208Z,35.87
2019-04-14T08:09:28.480Z,37.30
2019-04-14T08:11:57.640Z,39.57
2019-04-14T08:14:26.881Z,37.97
2019-04-14T08:16:56.033Z,36.33
2019-04-14T08:19:25.240Z,36.93
2019-04-14T08:21:54.412Z,38.10
2019-04-14T08:24:23.656Z,35.87
2019-04-14T08:26:52.854Z,38.70
2019-04-14T08:29:22.013Z,38.93
2019-04-14T08:31:51.218Z,36.80
2019-04-14T08:34:22.163Z,39.50
2019-04-14T08:36:51.501Z,41.43
2019-04-14T08:39:20.765Z,37.63
2019-04-14T08:42:00.598Z,36.47
2019-04-14T08:44:35.834Z,35.33
2019-04-14T08:47:22.724Z,36.47
2019-04-14T08:49:54.915Z,37.40
2019-04-14T08:52:27.519Z,41.30
2019-04-14T08:55:09.108Z,36.40
2019-04-14T08:57:43.131Z,35.87
2019-04-14T09:00:20.287Z,38.27
2019-04-14T09:03:14.425Z,35.70
2019-04-14T09:06:02.579Z,35.87
2019-04-14T09:08:39.298Z,37.90
2019-04-14T09:11:08.884Z,41.70
2019-04-14T09:13:38.107Z,36.17
2019-04-14T09:16:07.328Z,35.13
2019-04-14T09:18:36.609Z,36.70
2019-04-14T09:21:05.810Z,35.53
2019-04-14T09:23:35.039Z,32.97
2019-04-14T09:26:04.565Z,35.03
2019-04-14T09:28:33.900Z,36.10
2019-04-14T09:31:03.266Z,33.27
2019-04-14T09:33:32.496Z,34.60
2019-04-14T09:36:01.701Z,34.53
2019-04-14T09:38:30.887Z,34.73
2019-04-14T09:41:00.168Z,35.13
2019-04-14T09:43:29.386Z,34.00
2019-04-14T09:45:58.704Z,34.90
2019-04-14T09:48:27.981Z,37.17
2019-04-14T09:51:04.790Z,33.43
2019-04-14T09:53:28.211Z,33.57
2019-04-14T09:55:57.450Z,33.00
2019-04-14T09:58:26.697Z,33.13
2019-04-14T10:00:55.925Z,35.57
2019-04-14T10:03:25.166Z,33.40
2019-04-14T10:05:55.714Z,35.73
2019-04-14T10:08:24.994Z,33.90
2019-04-14T10:10:54.162Z,34.63
2019-04-14T10:13:23.365Z,33.80
2019-04-14T10:15:52.659Z,35.33
2019-04-14T10:18:21.845Z,32.57
2019-04-14T10:20:51.078Z,33.80
2019-04-14T10:23:20.268Z,34.03
2019-04-14T10:25:49.453Z,31.63
2019-04-14T10:28:18.747Z,35.23
2019-04-14T10:30:47.960Z,35.70
2019-04-14T10:33:17.288Z,31.37
2019-04-14T10:35:46.756Z,35.00
2019-04-14T10:38:16.236Z,30.97
2019-04-14T10:40:45.463Z,35.10
2019-04-14T10:43:14.675Z,34.97
2019-04-14T10:45:43.899Z,32.77
2019-04-14T10:48:13.229Z,32.33
2019-04-14T10:50:42.589Z,29.90
2019-04-14T10:53:11.782Z,32.67
2019-04-14T10:55:41.078Z,34.00
2019-04-14T10:58:10.322Z,35.90
2019-04-14T11:00:39.658Z,32.73
2019-04-14T11:03:08.924Z,32.23
2019-04-14T11:06:01.424Z,32.77
2019-04-14T11:08:30.650Z,33.27
2019-04-14T11:10:59.921Z,32.80
2019-04-14T11:13:29.137Z,33.07
2019-04-14T11:15:58.451Z,32.20
2019-04-14T11:18:27.801Z,33.67
2019-04-14T11:20:57.187Z,34.77
2019-04-14T11:23:26.504Z,31.37
2019-04-14T11:25:55.821Z,34.60
2019-04-14T11:28:25.013Z,34.43
2019-04-14T11:30:54.240Z,32.97
2019-04-14T11:33:29.920Z,33.30
2019-04-14T11:36:36.332Z,34.07
2019-04-14T11:39:09.775Z,34.33
2019-04-14T11:41:39.057Z,34.97
2019-04-14T11:44:08.386Z,31.03
2019-04-14T11:46:37.574Z,34.87
2019-04-14T11:49:06.756Z,34.40
2019-04-14T11:51:35.953Z,31.33
2019-04-14T11:54:05.369Z,32.73
2019-04-14T11:56:34.635Z,33.27
2019-04-14T11:59:03.840Z,32.93
2019-04-14T12:01:52.019Z,31.60
2019-04-14T12:04:39.704Z,32.20
2019-04-14T12:07:30.890Z,37.33
2019-04-14T12:10:09.264Z,32.93
2019-04-14T12:12:38.722Z,33.87
2019-04-14T12:15:12.238Z,32.30
2019-04-14T12:17:39.971Z,32.53
2019-04-14T12:20:09.452Z,34.33
2019-04-14T12:22:38.643Z,31.47
2019-04-14T12:25:07.963Z,33.13
2019-04-14T12:27:37.250Z,31.40
2019-04-14T12:30:09.450Z,32.13
2019-04-14T12:32:38.775Z,27.10
2019-04-14T12:35:09.603Z,32.80
2019-04-14T12:37:38.840Z,30.57
2019-04-14T12:40:08.332Z,28.77
2019-04-14T12:42:47.609Z,28.00
2019-04-14T12:45:53.951Z,30.43
2019-04-14T12:48:35.021Z,28.00
2019-04-14T12:51:08.127Z,27.93
2019-04-14T12:53:37.461Z,28.87
2019-04-14T12:56:06.789Z,26.97
2019-04-14T12:58:43.729Z,25.37
2019-04-14T13:01:13.711Z,24.60
2019-04-14T13:03:43.241Z,25.17
2019-04-14T13:06:12.526Z,24.77
2019-04-14T13:08:41.769Z,23.77
2019-04-14T13:11:11.970Z,23.73
2019-04-14T13:13:41.184Z,21.40
2019-04-14T13:16:10.403Z,21.37
2019-04-14T13:18:39.649Z,21.03
2019-04-14T13:21:08.857Z,20.40
2019-04-14T13:23:38.085Z,19.93
2019-04-14T13:26:07.286Z,20.57
2019-04-14T13:28:36.485Z,18.53
2019-04-14T13:31:05.787Z,18.57
2019-04-14T13:33:35.012Z,19.03
2019-04-14T13:36:04.382Z,19.47
2019-04-14T13:38:33.590Z,17.00
2019-04-14T13:41:02.971Z,18.17
2019-04-14T13:43:32.877Z,17.40
2019-04-14T13:46:02.209Z,19.80
2019-04-14T13:48:31.518Z,23.47
2019-04-14T13:51:00.781Z,20.13
2019-04-14T13:53:30.045Z,17.70
2019-04-14T13:55:59.379Z,18.53
2019-04-14T13:58:28.678Z,19.13
2019-04-14T14:00:58.467Z,20.03
2019-04-14T14:03:27.751Z,20.10
2019-04-14T14:05:57.021Z,20.53
2019-04-14T14:08:26.273Z,22.10
2019-04-14T14:11:00.031Z,22.13
2019-04-14T14:13:35.825Z,20.10
2019-04-14T14:16:42.328Z,20.83
2019-04-14T14:19:42.810Z,20.37
2019-04-14T14:22:36.824Z,19.23
2019-04-14T14:25:10.456Z,21.83
2019-04-14T14:27:39.725Z,20.73
2019-04-14T14:30:11.139Z,19.73
2019-04-14T14:32:40.396Z,22.27
2019-04-14T14:35:10.300Z,20.70
2019-04-14T14:37:39.542Z,17.77
2019-04-14T14:40:11.390Z,19.43
2019-04-14T14:42:40.797Z,19.93
2019-04-14T14:45:29.100Z,19.33
2019-04-14T14:48:15.824Z,19.97
2019-04-14T14:50:58.282Z,22.57
2019-04-14T14:53:27.513Z,20.27
2019-04-14T14:55:56.804Z,19.27
2019-04-14T14:58:26.053Z,20.13
2019-04-14T15:00:55.267Z,20.73
2019-04-14T15:03:24.451Z,20.03
2019-04-14T15:05:53.715Z,18.07
2019-04-14T15:08:22.958Z,19.60
2019-04-14T15:10:52.201Z,18.97
2019-04-14T15:13:21.424Z,18.77
2019-04-14T15:15:50.616Z,18.70
2019-04-14T15:18:19.855Z,20.33
2019-04-14T15:20:49.095Z,19.23
2019-04-14T15:23:24.819Z,20.43
2019-04-14T15:25:49.370Z,19.17
2019-04-14T15:28:18.589Z,19.57
2019-04-14T15:30:47.831Z,20.73
2019-04-14T15:33:17.078Z,20.13
2019-04-14T15:35:46.266Z,19.47
2019-04-14T15:38:15.527Z,22.13
2019-04-14T15:40:44.797Z,16.90
2019-04-14T15:43:14.046Z,20.00
2019-04-14T15:45:43.241Z,18.13
2019-04-14T15:48:12.467Z,21.47
2019-04-14T15:50:41.678Z,18.07
2019-04-14T15:53:11.313Z,20.13
2019-04-14T15:55:40.949Z,18.87
2019-04-14T15:58:17.468Z,19.73
2019-04-14T16:01:14.820Z,19.23
2019-04-14T16:03:54.756Z,17.80
2019-04-14T16:06:47.272Z,18.17
2019-04-14T16:09:32.339Z,16.73
2019-04-14T16:12:32.334Z,17.73
2019-04-14T16:15:19.566Z,16.17
2019-04-14T16:17:56.841Z,17.17
2019-04-14T16:20:29.950Z,18.00
2019-04-14T16:22:59.572Z,18.83
2019-04-14T16:25:49.241Z,16.53
2019-04-14T16:28:33.047Z,14.37
2019-04-14T16:31:27.078Z,16.63
2019-04-14T16:34:21.195Z,14.47
2019-04-14T16:36:50.763Z,14.60
2019-04-14T16:39:20.389Z,13.73
2019-04-14T16:41:49.798Z,15.23
2019-04-14T16:44:19.169Z,15.03
2019-04-14T16:46:48.548Z,15.53
2019-04-14T16:49:17.905Z,17.53
2019-04-14T16:52:12.073Z,14.20
2019-04-14T16:54:47.829Z,17.60
2019-04-14T16:57:34.361Z,15.20
2019-04-14T17:00:04.645Z,15.37
2019-04-14T17:02:33.981Z,14.87
2019-04-14T17:05:04.792Z,16.47
2019-04-14T17:07:34.113Z,17.17
2019-04-14T17:10:03.399Z,15.00
2019-04-14T17:12:32.655Z,14.60
2019-04-14T17:15:29.891Z,20.07
2019-04-14T17:18:24.190Z,14.53
2019-04-14T17:21:21.661Z,15.63
2019-04-14T17:23:57.605Z,14.43
2019-04-14T17:26:33.193Z,15.40
2019-04-14T17:29:21.407Z,16.00
2019-04-14T17:32:04.410Z,14.47
2019-04-14T17:34:41.975Z,14.70
2019-04-14T17:37:21.789Z,15.67
2019-04-14T17:39:55.356Z,13.43
2019-04-14T17:42:43.763Z,14.20
2019-04-14T17:45:30.307Z,14.10
2019-04-14T17:48:17.167Z,14.67
2019-04-14T17:50:54.652Z,15.67
2019-04-14T17:53:42.896Z,14.93
2019-04-14T17:56:36.929Z,15.13
2019-04-14T17:59:27.885Z,15.60
2019-04-14T18:02:24.810Z,14.93
2019-04-14T18:05:09.515Z,15.13
2019-04-14T18:08:00.801Z,18.57
2019-04-14T18:11:00.832Z,15.53
2019-04-14T18:13:38.288Z,16.73
2019-04-14T18:16:38.778Z,15.53
2019-04-14T18:19:24.969Z,18.40
2019-04-14T18:21:54.248Z,17.37
2019-04-14T18:24:23.546Z,19.23
2019-04-14T18:26:52.882Z,17.27
2019-04-14T18:29:39.896Z,18.70
2019-04-14T18:32:26.819Z,16.07
2019-04-14T18:35:26.922Z,16.90
2019-04-14T18:38:18.698Z,17.90
2019-04-14T18:41:01.691Z,17.77
2019-04-14T18:43:51.079Z,14.93
2019-04-14T18:46:47.359Z,19.30
2019-04-14T18:49:32.211Z,20.97
2019-04-14T18:52:12.878Z,23.37
2019-04-14T18:55:01.147Z,21.87
2019-04-14T18:57:43.324Z,18.77
2019-04-14T19:00:17.644Z,19.93
2019-04-14T19:02:47.201Z,18.47
2019-04-14T19:05:17.103Z,17.20
2019-04-14T19:07:46.589Z,19.33
2019-04-14T19:10:16.147Z,20.43
2019-04-14T19:13:02.331Z,18.90
2019-04-14T19:15:38.870Z,18.07
2019-04-14T19:18:42.597Z,18.23
2019-04-14T19:21:19.813Z,18.47
2019-04-14T19:23:49.205Z,17.33
2019-04-14T19:26:18.557Z,18.03
2019-04-14T19:28:48.054Z,18.60
2019-04-14T19:31:17.488Z,19.43
2019-04-14T19:33:46.737Z,19.60
2019-04-14T19:36:16.002Z,17.33
2019-04-14T19:38:45.226Z,18.70
2019-04-14T19:41:14.456Z,18.80
2019-04-14T19:43:43.706Z,18.73
2019-04-14T19:46:12.961Z,17.17
2019-04-14T19:48:42.178Z,19.67
2019-04-14T19:51:11.445Z,16.07
2019-04-14T19:53:40.714Z,17.43
2019-04-14T19:56:09.954Z,16.47
2019-04-14T19:58:39.339Z,15.63
2019-04-14T20:01:08.565Z,16.73
2019-04-14T20:03:38.070Z,17.27
2019-04-14T20:06:07.513Z,15.30
2019-04-14T20:08:36.791Z,15.20
2019-04-14T20:11:06.085Z,17.20
2019-04-14T20:13:42.322Z,15.23
2019-04-14T20:16:48.944Z,15.50
2019-04-14T20:19:38.615Z,14.37
2019-04-14T20:22:29.952Z,14.43
2019-04-14T20:25:33.629Z,14.23
2019-04-14T20:28:16.661Z,14.60
2019-04-14T20:30:49.563Z,12.93
2019-04-14T20:33:18.878Z,12.20
2019-04-14T20:35:48.325Z,11.23
2019-04-14T20:38:17.583Z,11.27
2019-04-14T20:40:46.856Z,12.30
2019-04-14T20:43:16.112Z,12.50
2019-04-14T20:45:45.330Z,13.20
2019-04-14T20:48:14.533Z,11.90
2019-04-14T20:50:43.708Z,11.77
2019-04-14T20:53:13.017Z,11.37
2019-04-14T20:55:47.450Z,11.13
2019-04-14T20:58:13.336Z,10.27
2019-04-14T21:00:42.683Z,11.17
2019-04-14T21:03:32.151Z,11.63
2019-04-14T21:06:21.634Z,11.43
2019-04-14T21:09:08.654Z,10.53
2019-04-14T21:11:55.577Z,10.90
2019-04-14T21:14:38.841Z,12.20
2019-04-14T21:17:17.377Z,10.90
2019-04-14T21:19:56.120Z,11.57
2019-04-14T21:22:34.533Z,11.60
2019-04-14T21:25:22.849Z,9.63
2019-04-14T21:28:09.594Z,10.33
2019-04-14T21:30:55.990Z,10.63
2019-04-14T21:33:47.244Z,11.07
2019-04-14T21:36:21.323Z,11.30
2019-04-14T21:39:09.577Z,9.20
2019-04-14T21:41:38.856Z,9.30
2019-04-14T21:44:08.251Z,6.30
2019-04-14T21:46:37.678Z,9.93
2019-04-14T21:49:06.793Z,8.17
2019-04-14T21:51:55.031Z,6.70
2019-04-14T21:54:24.207Z,7.00
2019-04-14T21:57:11.075Z,9.87
2019-04-14T21:59:56.329Z,7.53
2019-04-14T22:02:56.470Z,12.10
2019-04-14T22:05:38.207Z,9.17
2019-04-14T22:08:17.608Z,13.67
2019-04-14T22:10:59.144Z,12.83
2019-04-14T22:13:28.297Z,11.47
2019-04-14T22:15:57.519Z,13.23
2019-04-14T22:18:26.739Z,10.17
2019-04-14T22:20:56.011Z,11.43
2019-04-14T22:23:25.268Z,11.20
2019-04-14T22:25:54.555Z,12.37
2019-04-14T22:28:24.126Z,12.27
2019-04-14T22:30:53.526Z,12.47
2019-04-14T22:33:22.706Z,11.53
2019-04-14T22:35:52.015Z,11.40
2019-04-14T22:38:21.578Z,8.17
2019-04-14T22:40:50.820Z,9.13
2019-04-14T22:43:20.060Z,9.00
2019-04-14T22:45:49.326Z,11.77
2019-04-14T22:48:18.517Z,12.90
2019-04-14T22:50:47.710Z,12.37
2019-04-14T22:53:16.959Z,12.27
2019-04-14T22:55:46.710Z,13.03
2019-04-14T22:58:16.293Z,12.00
2019-04-14T23:00:55.913Z,12.40
2019-04-14T23:03:42.611Z,11.67
2019-04-14T23:06:27.042Z,9.77
2019-04-14T23:09:04.744Z,11.33
2019-04-14T23:11:58.952Z,11.00
2019-04-14T23:14:50.250Z,13.90
2019-04-14T23:17:26.585Z,12.30
2019-04-14T23:20:12.094Z,13.37
2019-04-14T23:22:52.858Z,12.67
2019-04-14T23:25:22.111Z,8.63
2019-04-14T23:27:51.356Z,8.27
2019-04-14T23:30:20.615Z,11.90
2019-04-14T23:32:49.874Z,12.17
2019-04-14T23:35:19.138Z,10.10
2019-04-14T23:37:48.762Z,12.30
2019-04-14T23:40:17.988Z,11.50
2019-04-14T23:42:47.396Z,12.27
2019-04-14T23:45:16.600Z,9.90
2019-04-14T23:47:45.807Z,11.00
2019-04-14T23:50:15.033Z,12.20
2019-04-14T23:52:44.227Z,13.47
2019-04-14T23:55:13.429Z,12.07
2019-04-14T23:57:42.682Z,10.93
